createdAt,value
2023-04-01T00:00:39.502Z,0.8
2023-04-01T00:06:23.418Z,1.1
2023-04-01T00:12:07.470Z,0.7
2023-04-01T00:17:51.888Z,0.9
2023-04-01T00:23:36.102Z,0.8
2023-04-01T00:29:20.065Z,0.7
2023-04-01T00:35:04.040Z,0.7
2023-04-01T00:40:49.475Z,0.8
2023-04-01T00:46:33.560Z,0.7
2023-04-01T00:52:20.510Z,1.2
2023-04-01T00:58:05.037Z,0.8
2023-04-01T01:03:49.075Z,0.8
2023-04-01T01:09:38.876Z,0.8
2023-04-01T01:15:26.848Z,0.7
2023-04-01T01:21:22.446Z,0.7
2023-04-01T01:27:07.492Z,0.6
2023-04-01T01:33:12.130Z,0.6
2023-04-01T01:38:57.693Z,0.5
2023-04-01T01:44:43.766Z,0.5
2023-04-01T01:50:28.901Z,0.5
2023-04-01T01:56:14.578Z,0.5
2023-04-01T02:01:59.883Z,0.5
2023-04-01T02:07:46.639Z,0.4
2023-04-01T02:13:33.840Z,0.3
2023-04-01T02:19:19.201Z,0.6
2023-04-01T02:25:05.869Z,0.4
2023-04-01T02:30:51.027Z,0.4
2023-04-01T02:36:35.232Z,0.5
2023-04-01T02:42:19.183Z,0.5
2023-04-01T02:48:04.159Z,0.6
2023-04-01T02:53:48.251Z,0.7
2023-04-01T02:59:32.282Z,0.7
2023-04-01T03:05:16.239Z,1.3
2023-04-01T03:11:02.371Z,1.5
2023-04-01T03:16:46.631Z,1.5
2023-04-01T03:22:30.630Z,1.2
2023-04-01T03:28:14.642Z,1.4
2023-04-01T03:33:58.764Z,1.4
2023-04-01T03:39:45.702Z,1.5
2023-04-01T03:45:30.676Z,1.4
2023-04-01T03:51:15.022Z,1.6
2023-04-01T03:56:59.167Z,1.8
2023-04-01T04:02:43.502Z,1.7
2023-04-01T04:08:27.723Z,1.8
2023-04-01T04:14:11.714Z,1.8
2023-04-01T04:19:55.801Z,1.8
2023-04-01T04:25:39.782Z,1.9
2023-04-01T04:31:26.055Z,2.2
2023-04-01T04:37:10.208Z,2
2023-04-01T04:42:54.276Z,2.6
2023-04-01T04:48:38.660Z,2.8
2023-04-01T04:54:23.791Z,2.5
2023-04-01T05:00:08.782Z,2.9
2023-04-01T05:05:56.885Z,2.6
2023-04-01T05:11:40.873Z,2.8
2023-04-01T05:17:24.769Z,2.9
2023-04-01T05:23:08.662Z,2.8
2023-04-01T05:28:52.931Z,2.6
2023-04-01T05:34:37.888Z,2.4
2023-04-01T05:40:21.962Z,2.5
2023-04-01T05:46:06.175Z,2.5
2023-04-01T05:51:50.350Z,2.1
2023-04-01T05:57:34.719Z,2.6
2023-04-01T06:03:19.374Z,2.8
2023-04-01T06:09:08.458Z,3.3
2023-04-01T06:14:57.439Z,3
2023-04-01T06:20:46.540Z,3
2023-04-01T06:26:34.138Z,3.4
2023-04-01T06:32:28.407Z,3.4
2023-04-01T06:38:21.163Z,3.6
2023-04-01T06:44:10.855Z,3.9
2023-04-01T06:49:59.841Z,4
2023-04-01T06:55:46.067Z,3.6
2023-04-01T07:01:33.100Z,3.2
2023-04-01T07:07:19.161Z,3.4
2023-04-01T07:13:06.142Z,3
2023-04-01T07:18:51.676Z,2.9
2023-04-01T07:24:37.548Z,2.8
2023-04-01T07:30:23.154Z,2.6
2023-04-01T07:36:12.442Z,2.4
2023-04-01T07:42:03.041Z,2.3
2023-04-01T07:47:59.426Z,2.6
2023-04-01T07:53:48.426Z,2.7
2023-04-01T07:59:36.585Z,2.7
2023-04-01T08:05:27.035Z,2.4
2023-04-01T08:11:16.020Z,2.3
2023-04-01T08:17:05.189Z,2.3
2023-04-01T08:22:52.455Z,2.5
2023-04-01T08:28:40.446Z,2.4
2023-04-01T08:34:27.212Z,2.2
2023-04-01T08:40:18.315Z,2
2023-04-01T08:46:09.139Z,2.2
2023-04-01T08:52:04.471Z,2.5
2023-04-01T08:57:57.765Z,2.8
2023-04-01T09:03:53.477Z,2.5
2023-04-01T09:09:48.975Z,2.5
2023-04-01T09:15:44.184Z,2
2023-04-01T09:21:39.448Z,1.9
2023-04-01T09:27:29.404Z,1.5
2023-04-01T09:33:25.043Z,1.4
2023-04-01T09:39:15.646Z,1.1
2023-04-01T09:45:01.081Z,1.1
2023-04-01T09:50:48.295Z,0.9
2023-04-01T09:56:50.822Z,1
2023-04-01T10:02:46.156Z,0.9
2023-04-01T10:08:45.132Z,0.9
2023-04-01T10:14:50.392Z,0.9
2023-04-01T10:20:57.805Z,0.8
2023-04-01T10:26:59.277Z,0.9
2023-04-01T10:32:57.347Z,0.8
2023-04-01T10:38:54.501Z,0.9
2023-04-01T10:44:50.078Z,0.7
2023-04-01T10:50:47.829Z,0.7
2023-04-01T10:56:50.087Z,0.8
2023-04-01T11:02:45.695Z,0.9
2023-04-01T11:08:41.017Z,0.9
2023-04-01T11:14:43.698Z,1
2023-04-01T11:20:52.941Z,1.1
2023-04-01T11:26:43.586Z,1.1
2023-04-01T11:32:34.952Z,1.1
2023-04-01T11:38:27.796Z,1
2023-04-01T11:44:23.045Z,1
2023-04-01T11:50:15.585Z,1.1
2023-04-01T11:56:05.922Z,1
2023-04-01T12:02:01.514Z,1.2
2023-04-01T12:07:59.380Z,1
2023-04-01T12:13:46.750Z,1.1
2023-04-01T12:19:37.960Z,1
2023-04-01T12:25:26.220Z,1
2023-04-01T12:31:17.431Z,0.9
2023-04-01T12:37:06.735Z,0.9
2023-04-01T12:43:02.082Z,0.8
2023-04-01T12:48:57.398Z,0.9
2023-04-01T12:54:55.713Z,0.8
2023-04-01T13:00:51.803Z,0.7
2023-04-01T13:06:47.213Z,0.7
2023-04-01T13:12:39.593Z,0.7
2023-04-01T13:18:31.258Z,0.8
2023-04-01T13:24:21.873Z,0.6
2023-04-01T13:30:20.953Z,0.7
2023-04-01T13:36:10.983Z,0.8
2023-04-01T13:42:02.679Z,0.6
2023-04-01T13:47:58.906Z,0.8
2023-04-01T13:53:56.518Z,0.7
2023-04-01T13:59:50.526Z,0.7
2023-04-01T14:05:45.351Z,0.7
2023-04-01T14:11:34.043Z,0.9
2023-04-01T14:17:24.723Z,1
2023-04-01T14:23:18.646Z,1.2
2023-04-01T14:29:05.963Z,1
2023-04-01T14:35:07.419Z,1.2
2023-04-01T14:40:57.060Z,1.4
2023-04-01T14:46:55.416Z,1.2
2023-04-01T14:52:41.832Z,0.9
2023-04-01T14:58:27.988Z,1.1
2023-04-01T15:04:19.282Z,0.9
2023-04-01T15:10:11.188Z,0.8
2023-04-01T15:16:05.189Z,0.8
2023-04-01T15:22:00.169Z,1
2023-04-01T15:27:50.081Z,0.7
2023-04-01T15:33:51.207Z,0.7
2023-04-01T15:39:42.305Z,0.6
2023-04-01T15:45:34.930Z,0.6
2023-04-01T15:51:24.706Z,0.6
2023-04-01T15:57:18.570Z,0.8
2023-04-01T16:03:14.263Z,0.5
2023-04-01T16:09:07.359Z,0.4
2023-04-01T16:14:57.356Z,0.5
2023-04-01T16:20:53.031Z,0.5
2023-04-01T16:26:40.139Z,0.6
2023-04-01T16:32:34.195Z,0.5
2023-04-01T16:38:23.803Z,0.6
2023-04-01T16:44:21.034Z,0.5
2023-04-01T16:50:09.247Z,0.5
2023-04-01T16:55:56.292Z,0.5
2023-04-01T17:01:46.662Z,0.6
2023-04-01T17:07:35.296Z,0.6
2023-04-01T17:13:27.734Z,0.6
2023-04-01T17:19:17.519Z,0.6
2023-04-01T17:25:08.865Z,0.6
2023-04-01T17:30:55.394Z,0.6
2023-04-01T17:36:47.540Z,0.7
2023-04-01T17:42:36.526Z,0.7
2023-04-01T17:48:27.816Z,0.6
2023-04-01T17:54:17.917Z,0.6
2023-04-01T18:00:04.644Z,0.6
2023-04-01T18:05:54.793Z,0.7
2023-04-01T18:11:45.917Z,0.6
2023-04-01T18:17:36.587Z,0.6
2023-04-01T18:23:24.787Z,0.7
2023-04-01T18:29:14.092Z,0.6
2023-04-01T18:35:03.363Z,0.8
2023-04-01T18:40:51.538Z,0.8
2023-04-01T18:46:41.506Z,0.7
2023-04-01T18:52:29.099Z,0.9
2023-04-01T18:58:16.293Z,0.7
2023-04-01T19:04:03.713Z,0.9
2023-04-01T19:09:51.388Z,1.1
2023-04-01T19:15:42.601Z,0.9
2023-04-01T19:21:29.857Z,1.1
2023-04-01T19:27:18.139Z,1
2023-04-01T19:33:07.373Z,1
2023-04-01T19:39:01.378Z,1.1
2023-04-01T19:44:51.745Z,1.1
2023-04-01T19:50:41.749Z,1.3
2023-04-01T19:56:26.565Z,1.4
2023-04-01T20:02:16.924Z,1.1
2023-04-01T20:08:02.999Z,1.1
2023-04-01T20:13:51.137Z,1.3
2023-04-01T20:19:38.352Z,1.4
2023-04-01T20:25:24.994Z,1.6
2023-04-01T20:31:16.208Z,1.9
2023-04-01T20:37:12.595Z,1.9
2023-04-01T20:43:05.027Z,2.3
2023-04-01T20:49:05.604Z,2.1
2023-04-01T20:55:00.888Z,2.1
2023-04-01T21:00:52.373Z,2
2023-04-01T21:06:46.545Z,1.9
2023-04-01T21:12:36.911Z,2
2023-04-01T21:18:27.941Z,2.1
2023-04-01T21:24:22.012Z,2
2023-04-01T21:30:12.192Z,2.4
2023-04-01T21:36:00.030Z,2.4
2023-04-01T21:41:55.103Z,2.5
2023-04-01T21:47:50.810Z,2.6
2023-04-01T21:53:53.051Z,2.6
2023-04-01T21:59:50.938Z,2.7
2023-04-01T22:05:38.454Z,2.6
2023-04-01T22:11:27.921Z,3.2
2023-04-01T22:17:16.900Z,3.2
2023-04-01T22:23:05.008Z,3
2023-04-01T22:28:52.515Z,3.3
2023-04-01T22:34:41.867Z,3.5
2023-04-01T22:40:30.886Z,4
2023-04-01T22:46:27.107Z,3.9
2023-04-01T22:52:15.741Z,4
2023-04-01T22:58:02.586Z,4
2023-04-01T23:03:49.334Z,4.4
2023-04-01T23:09:34.774Z,4
2023-04-01T23:15:19.306Z,4.5
2023-04-01T23:21:10.294Z,4.5
2023-04-01T23:26:57.960Z,4.2
2023-04-01T23:32:42.937Z,3.8
2023-04-01T23:38:29.570Z,4
2023-04-01T23:44:16.542Z,4
2023-04-01T23:50:05.639Z,3.9
2023-04-01T23:55:49.974Z,3.6
